Aérodrome :







RETROUVEZ-NOUS SUR...

 
LOGIN :

S'inscrire | Disclaimer

   EN    FR    IT 

 









Légende :    VFR   VFR Marginal   IFR   IFR Intensif   IFR Très Intensif
Visi : 
Plafond : 
>= 8 km
>= 3000ft
5 à 8 km
1000 à 3000 ft
1500m à 5 km
500 à 1000 ft
800 à 1500m
200 à 500 ft
< 800m
< 200 ft
Symboles :   Orages  Brouillard  Fortes neiges  Fortes précipitations  Vent > 20 kt






- Altitude de l'aérodrome : 283 ft
- Code IATA : GOH


BGGH - Nuuk

DERNIER METAR :
  • 221150Z 06006KT 9999 FEW090 SCT130 M06/M13 Q1011

METARs EXPIRÉS :
  • 221050Z 10003KT 9999 FEW090 BKN120 M06/M12 Q1011
  • 220950Z 08002KT 9999 SCT120 M06/M13 Q1012

TAF TAF BGGH
Valide du 22 à 12h jusqu'au 22 à 21h UTC


221110Z 2212/2221 10005KT 9999 BKN120
TEMPO 2215/2221 BKN070
BECMG 2218/2221 16012KT



MET'MAP, la Météo Aéronautique d'un coup d'oeil ! - Copyright ORBIFLY Décembre 2007 - Disclaimer

ORBIFLY MET'MAP TEAM :

Programmation & Développement : Alexandra Zaïnal
Conception & Développement : Baudouin d'Aumeries
Co-Programmation & Développement : Marc-Olivier Méhu
Soutien technique & logistique : Manuel Goepfert

Contact : metmap@orbifly.com




SOURCES & CREDITS :

   NOAA